Time;durP1;ratioP1;P1;durP2;ratioP2;P2;SDS_P1;SDS_P2;PMS_P1;PMS_P2;Temp;Humidity;BMP_temperature;BMP_pressure;BME280_temperature;BME280_humidity;BME280_pressure;Samples;Min_cycle;Max_cycle;Signal;HPM_P1;HPM_P2
2023/12/07 03:15:13;;;;;;;126.70;57.77;;;0.70;96.60;;;;;;4995904;28;20648;-86
2023/12/07 03:17:38;;;;;;;120.00;58.80;;;0.70;96.60;;;;;;4995760;28;20186;-86
2023/12/07 03:20:05;;;;;;;98.13;49.37;;;0.70;96.60;;;;;;4996218;28;20289;-86
2023/12/07 03:22:31;;;;;;;89.83;48.77;;;0.70;96.60;;;;;;4978071;28;20277;-85
2023/12/07 03:24:56;;;;;;;85.57;47.23;;;0.80;96.60;;;;;;4996397;28;20646;-86
2023/12/07 03:27:22;;;;;;;86.50;47.60;;;0.80;96.60;;;;;;4996230;28;20196;-88
2023/12/07 03:29:47;;;;;;;84.33;54.43;;;0.80;96.50;;;;;;4978454;28;20198;-87
2023/12/07 03:32:13;;;;;;;77.77;50.67;;;0.80;96.50;;;;;;4995752;28;20174;-88
2023/12/07 03:34:38;;;;;;;87.57;51.83;;;0.80;96.50;;;;;;4995936;28;20179;-87
2023/12/07 03:37:04;;;;;;;80.97;51.40;;;0.90;96.50;;;;;;4996182;28;20198;-86
2023/12/07 03:39:32;;;;;;;88.90;52.17;;;0.90;96.50;;;;;;4995615;28;20677;-86
2023/12/07 03:41:57;;;;;;;85.33;53.80;;;0.80;96.50;;;;;;4978214;28;20592;-86
2023/12/07 03:44:23;;;;;;;75.10;50.77;;;0.80;96.50;;;;;;4995846;28;20177;-86
2023/12/07 03:46:48;;;;;;;70.97;50.60;;;0.90;96.50;;;;;;4977991;28;20193;-86
2023/12/07 03:49:14;;;;;;;85.60;53.43;;;0.90;96.50;;;;;;4977548;28;20194;-86
2023/12/07 03:51:39;;;;;;;106.57;60.37;;;0.80;96.40;;;;;;4978929;28;20174;-86
2023/12/07 03:54:05;;;;;;;109.77;60.43;;;0.70;96.50;;;;;;4995758;28;20597;-85
2023/12/07 03:56:32;;;;;;;109.83;60.87;;;0.70;96.50;;;;;;4996432;28;20182;-87
2023/12/07 03:58:58;;;;;;;103.10;59.20;;;0.70;96.50;;;;;;4995521;28;20252;-87
2023/12/07 04:01:24;;;;;;;113.03;61.30;;;0.70;96.50;;;;;;4978231;28;20182;-87
2023/12/07 04:03:50;;;;;;;104.47;56.03;;;0.70;96.50;;;;;;4977893;28;20198;-88
2023/12/07 04:06:16;;;;;;;97.97;50.03;;;0.70;96.50;;;;;;4996048;28;20169;-88
2023/12/07 04:08:42;;;;;;;84.13;47.93;;;0.80;96.50;;;;;;4995756;28;20688;-86
2023/12/07 04:11:07;;;;;;;76.23;45.20;;;0.70;96.50;;;;;;4995839;28;20249;-87
2023/12/07 04:13:33;;;;;;;74.83;52.10;;;0.80;96.50;;;;;;4995611;28;20221;-86
2023/12/07 04:15:59;;;;;;;74.83;51.07;;;0.90;96.50;;;;;;4996104;28;20191;-87
2023/12/07 04:18:24;;;;;;;65.07;40.83;;;0.90;96.50;;;;;;4996237;28;20689;-85
2023/12/07 04:20:50;;;;;;;65.00;41.47;;;0.90;96.50;;;;;;4996214;28;20182;-86
2023/12/07 04:23:15;;;;;;;65.70;43.13;;;0.90;96.50;;;;;;4996115;28;20225;-87
2023/12/07 04:25:41;;;;;;;71.70;51.37;;;0.80;96.40;;;;;;4996299;28;20661;-87
2023/12/07 04:28:06;;;;;;;80.43;53.27;;;0.80;96.40;;;;;;4996243;28;20201;-88
2023/12/07 04:30:32;;;;;;;85.77;53.50;;;0.70;96.40;;;;;;4995864;28;20178;-87
2023/12/07 04:32:57;;;;;;;87.17;46.97;;;0.70;96.50;;;;;;4996107;28;20174;-86
2023/12/07 04:35:23;;;;;;;96.97;49.43;;;0.70;96.50;;;;;;4996503;28;20185;-86
2023/12/07 04:37:48;;;;;;;99.60;57.53;;;0.70;96.50;;;;;;4978342;28;20608;-86
2023/12/07 04:40:14;;;;;;;95.13;58.40;;;0.70;96.50;;;;;;4995859;28;20682;-87
2023/12/07 04:42:40;;;;;;;121.10;61.30;;;0.70;96.50;;;;;;4995899;28;20197;-87
2023/12/07 04:45:06;;;;;;;100.10;50.43;;;0.70;96.50;;;;;;4978369;28;20646;-88
2023/12/07 04:47:32;;;;;;;102.87;52.00;;;0.70;96.50;;;;;;4996107;28;20181;-88
2023/12/07 04:49:58;;;;;;;112.60;57.53;;;0.70;96.50;;;;;;4996805;28;20209;-86
2023/12/07 04:52:24;;;;;;;117.87;59.47;;;0.70;96.50;;;;;;4996253;28;20186;-87
2023/12/07 04:54:49;;;;;;;131.47;64.63;;;0.70;96.50;;;;;;4994312;28;20178;-85
2023/12/07 04:57:15;;;;;;;117.47;55.47;;;0.60;96.50;;;;;;4977915;28;20182;-86
2023/12/07 04:59:40;;;;;;;108.23;51.73;;;0.70;96.50;;;;;;4998042;28;20202;-87
2023/12/07 05:02:06;;;;;;;125.30;62.60;;;0.70;96.60;;;;;;4999991;28;20390;-86
2023/12/07 05:04:33;;;;;;;120.10;60.87;;;0.70;96.60;;;;;;5000255;28;20204;-86
2023/12/07 05:06:59;;;;;;;123.23;61.40;;;0.80;96.60;;;;;;4999390;28;20178;-87
2023/12/07 05:09:24;;;;;;;124.00;54.13;;;0.80;96.60;;;;;;4998571;28;20257;-87
2023/12/07 05:11:50;;;;;;;118.23;57.07;;;0.80;96.60;;;;;;4999446;28;20173;-87
2023/12/07 05:14:15;;;;;;;126.03;60.87;;;0.80;96.70;;;;;;5000102;28;20200;-86
2023/12/07 05:16:41;;;;;;;119.60;61.27;;;0.80;96.60;;;;;;4982313;28;20178;-86
2023/12/07 05:19:06;;;;;;;119.17;59.87;;;0.80;96.60;;;;;;4999635;28;20212;-85
2023/12/07 05:21:32;;;;;;;114.77;59.33;;;0.80;96.70;;;;;;4982049;28;20182;-86
2023/12/07 05:23:58;;;;;;;127.70;59.03;;;0.80;96.70;;;;;;5000026;28;20228;-87
2023/12/07 05:26:23;;;;;;;134.40;66.77;;;0.80;96.70;;;;;;4999871;28;20264;-87
2023/12/07 05:28:49;;;;;;;147.93;68.60;;;0.80;96.70;;;;;;4999845;28;20685;-87
2023/12/07 05:31:16;;;;;;;140.90;65.87;;;0.70;96.70;;;;;;4998410;28;20206;-86
2023/12/07 05:33:42;;;;;;;139.73;62.37;;;0.80;96.70;;;;;;4999172;28;20197;-88
2023/12/07 05:36:08;;;;;;;139.80;59.77;;;0.80;96.70;;;;;;4999566;28;20743;-87
2023/12/07 05:38:33;;;;;;;141.97;66.80;;;0.80;96.70;;;;;;4982219;28;20209;-86
2023/12/07 05:40:59;;;;;;;142.70;66.27;;;0.70;96.70;;;;;;4982335;28;20182;-86
2023/12/07 05:43:24;;;;;;;140.60;67.00;;;0.70;96.70;;;;;;4982165;28;20209;-88
2023/12/07 05:45:50;;;;;;;114.97;57.80;;;0.70;96.70;;;;;;4999746;28;20173;-87
2023/12/07 05:48:15;;;;;;;101.00;53.03;;;0.80;96.70;;;;;;4999273;28;20271;-87
2023/12/07 05:50:41;;;;;;;99.23;54.73;;;0.80;96.70;;;;;;4981830;28;20261;-88
2023/12/07 05:53:07;;;;;;;84.53;51.07;;;0.90;96.70;;;;;;4998795;28;20169;-87
2023/12/07 05:55:33;;;;;;;83.10;51.67;;;0.90;96.70;;;;;;4999378;28;20182;-88
2023/12/07 05:57:58;;;;;;;73.30;42.87;;;0.90;96.70;;;;;;4999390;28;20257;-88
2023/12/07 06:00:23;;;;;;;68.00;42.10;;;0.90;96.70;;;;;;4981856;28;20262;-88
2023/12/07 06:02:49;;;;;;;69.77;43.53;;;1.00;96.70;;;;;;4998696;28;20198;-87
2023/12/07 06:05:15;;;;;;;69.80;42.13;;;1.00;96.70;;;;;;4999140;28;20183;-87
2023/12/07 06:07:41;;;;;;;66.37;42.90;;;1.00;96.70;;;;;;4982064;28;20266;-87
2023/12/07 06:10:07;;;;;;;79.47;45.47;;;1.00;96.70;;;;;;4997194;28;20191;-88
2023/12/07 06:12:32;;;;;;;79.43;46.50;;;1.00;96.70;;;;;;4998983;28;20174;-88
2023/12/07 06:14:58;;;;;;;80.80;47.40;;;0.90;96.60;;;;;;4981624;28;20259;-87
2023/12/07 06:17:23;;;;;;;81.60;48.03;;;0.90;96.60;;;;;;5000034;28;20174;-88
2023/12/07 06:19:49;;;;;;;73.83;44.17;;;0.80;96.70;;;;;;4999196;28;20710;-87
2023/12/07 06:22:14;;;;;;;76.10;53.27;;;0.90;96.70;;;;;;4999398;28;20569;-86
2023/12/07 06:24:40;;;;;;;77.50;53.43;;;0.90;96.70;;;;;;4999123;28;20181;-88
2023/12/07 06:27:06;;;;;;;90.93;54.67;;;0.90;96.70;;;;;;4982035;28;20178;-88
2023/12/07 06:29:32;;;;;;;92.73;58.13;;;0.80;96.60;;;;;;4999287;28;20182;-88
2023/12/07 06:31:57;;;;;;;93.57;59.50;;;0.80;96.70;;;;;;4998019;28;20289;-88
2023/12/07 06:34:23;;;;;;;110.13;59.37;;;0.80;96.70;;;;;;4999245;28;20682;-88
2023/12/07 06:36:48;;;;;;;103.57;60.53;;;0.80;96.70;;;;;;4982412;28;20559;-87
2023/12/07 06:39:14;;;;;;;109.90;62.70;;;0.80;96.70;;;;;;4999254;28;20669;-88
2023/12/07 06:41:40;;;;;;;116.00;64.50;;;0.80;96.70;;;;;;4982804;28;20330;-87
2023/12/07 06:44:06;;;;;;;119.23;63.97;;;0.80;96.70;;;;;;4999104;28;20194;-88
2023/12/07 06:46:32;;;;;;;116.20;63.53;;;0.80;96.70;;;;;;4998188;28;20178;-87
2023/12/07 06:48:57;;;;;;;123.33;65.03;;;0.80;96.80;;;;;;4981807;28;20198;-87
2023/12/07 06:51:23;;;;;;;122.73;64.87;;;0.80;96.80;;;;;;4999672;28;20174;-87
2023/12/07 06:53:48;;;;;;;103.83;60.83;;;0.80;96.80;;;;;;4999472;28;20182;-87
2023/12/07 06:56:14;;;;;;;80.77;49.33;;;0.80;96.80;;;;;;4997957;28;20572;-88
2023/12/07 06:58:40;;;;;;;84.27;49.23;;;0.80;96.70;;;;;;4982138;28;20240;-88
2023/12/07 07:01:06;;;;;;;89.87;56.10;;;0.80;96.70;;;;;;4999446;28;20201;-87
2023/12/07 07:03:31;;;;;;;85.17;57.77;;;0.80;96.70;;;;;;4999338;28;20240;-88
2023/12/07 07:05:59;;;;;;;81.27;54.43;;;0.80;96.70;;;;;;4999831;28;20171;-88
2023/12/07 07:08:25;;;;;;;80.27;45.87;;;0.80;96.70;;;;;;4999203;28;20717;-87
2023/12/07 07:10:50;;;;;;;85.63;48.90;;;0.80;96.70;;;;;;4982229;28;20261;-88
2023/12/07 07:13:16;;;;;;;108.50;63.23;;;0.70;96.70;;;;;;4982330;28;20272;-87
2023/12/07 07:15:45;;;;;;;105.87;61.87;;;0.60;96.70;;;;;;4981707;28;20678;-87
2023/12/07 07:18:11;;;;;;;106.50;63.67;;;0.60;96.70;;;;;;4978415;28;20697;-85
2023/12/07 07:20:36;;;;;;;105.00;56.57;;;0.60;96.70;;;;;;4995110;28;20185;-86
2023/12/07 07:23:02;;;;;;;107.90;55.50;;;0.60;96.70;;;;;;4994425;28;20237;-85
2023/12/07 07:25:27;;;;;;;107.93;56.67;;;0.60;96.70;;;;;;4994681;28;20198;-85
2023/12/07 07:27:54;;;;;;;95.93;54.33;;;0.60;96.70;;;;;;4994373;28;20181;-86
2023/12/07 07:30:22;;;;;;;105.03;55.97;;;0.70;96.80;;;;;;4994519;28;20173;-84
2023/12/07 07:32:48;;;;;;;90.90;53.03;;;0.70;96.70;;;;;;4977414;28;20182;-85
2023/12/07 07:35:14;;;;;;;80.53;50.63;;;0.70;96.80;;;;;;4993305;28;20718;-85
2023/12/07 07:37:41;;;;;;;75.23;47.80;;;0.80;96.80;;;;;;4994217;28;20178;-86
2023/12/07 07:40:07;;;;;;;72.83;46.73;;;0.80;96.80;;;;;;4994488;28;20547;-86
2023/12/07 07:42:33;;;;;;;77.30;52.60;;;0.90;96.80;;;;;;4976686;28;20194;-85
2023/12/07 07:44:59;;;;;;;77.67;55.57;;;0.90;96.80;;;;;;4994111;28;20221;-85
2023/12/07 07:47:25;;;;;;;71.27;55.33;;;0.90;96.70;;;;;;4993202;28;20178;-86
2023/12/07 07:49:50;;;;;;;82.53;56.83;;;0.80;96.70;;;;;;4976823;28;20201;-86
2023/12/07 07:52:16;;;;;;;86.97;58.33;;;0.80;96.70;;;;;;4994609;28;20184;-86
2023/12/07 07:54:42;;;;;;;77.47;54.03;;;0.80;96.70;;;;;;4994799;28;20185;-85
2023/12/07 07:57:07;;;;;;;73.27;54.07;;;0.90;96.80;;;;;;4994004;28;20178;-85
2023/12/07 07:59:33;;;;;;;76.37;58.20;;;0.90;96.80;;;;;;4993933;28;20202;-85
2023/12/07 08:01:58;;;;;;;75.03;57.67;;;0.90;96.70;;;;;;4994210;28;20233;-86
2023/12/07 08:04:24;;;;;;;83.07;59.97;;;0.90;96.80;;;;;;4976434;28;20201;-86
2023/12/07 08:06:49;;;;;;;85.20;61.77;;;0.90;96.70;;;;;;4994307;28;20552;-86
2023/12/07 08:09:15;;;;;;;86.50;53.03;;;0.80;96.70;;;;;;4993955;28;20289;-85
2023/12/07 08:11:41;;;;;;;81.23;51.10;;;0.80;96.80;;;;;;4992499;28;20210;-86
2023/12/07 08:14:06;;;;;;;83.90;61.33;;;0.90;96.70;;;;;;4992647;28;20213;-85
2023/12/07 08:16:32;;;;;;;93.33;64.47;;;0.90;96.70;;;;;;4994610;28;20193;-86
2023/12/07 08:18:58;;;;;;;95.43;57.90;;;0.80;96.70;;;;;;4976457;28;20224;-85
2023/12/07 08:21:25;;;;;;;86.40;54.30;;;0.70;96.70;;;;;;4993853;28;20256;-85
2023/12/07 08:23:51;;;;;;;85.40;62.07;;;0.70;96.70;;;;;;4993640;28;20696;-85
2023/12/07 08:26:17;;;;;;;97.77;64.00;;;0.80;96.70;;;;;;4992435;28;20178;-86
2023/12/07 08:28:43;;;;;;;105.33;67.40;;;0.80;96.70;;;;;;4993983;28;20602;-86
2023/12/07 08:31:10;;;;;;;169.53;63.73;;;0.80;96.70;;;;;;4994271;28;20261;-85
2023/12/07 08:33:35;;;;;;;175.70;61.17;;;0.80;96.70;;;;;;4994524;28;20182;-86
2023/12/07 08:36:02;;;;;;;185.73;60.47;;;0.80;96.70;;;;;;4997867;28;20561;-86
2023/12/07 08:38:27;;;;;;;229.70;70.63;;;0.80;96.70;;;;;;4997843;28;20605;-85
2023/12/07 08:40:53;;;;;;;212.97;72.23;;;0.80;96.70;;;;;;4998002;28;20189;-85
2023/12/07 08:43:22;;;;;;;323.27;70.53;;;0.80;96.80;;;;;;4980121;28;20210;-85
2023/12/07 08:45:49;;;;;;;346.60;69.40;;;0.80;96.80;;;;;;4980370;28;20398;-86
2023/12/07 08:48:15;;;;;;;248.63;65.80;;;0.80;96.80;;;;;;4997603;28;20674;-85
2023/12/07 08:50:40;;;;;;;424.43;75.50;;;0.80;96.80;;;;;;4997941;28;20171;-85
2023/12/07 08:53:06;;;;;;;269.23;76.40;;;0.90;96.80;;;;;;4998033;28;20662;-85
2023/12/07 08:55:32;;;;;;;370.53;73.90;;;0.80;96.80;;;;;;4980300;28;20273;-85
2023/12/07 08:57:57;;;;;;;364.67;70.23;;;0.80;96.80;;;;;;4980191;28;20238;-85
2023/12/07 09:00:25;;;;;;;338.97;63.33;;;0.80;96.80;;;;;;4980068;28;20193;-85
2023/12/07 09:02:51;;;;;;;212.10;69.30;;;0.80;96.90;;;;;;4997227;28;20551;-85
2023/12/07 09:05:17;;;;;;;422.90;82.70;;;0.80;96.90;;;;;;4997624;28;20625;-86
2023/12/07 09:07:43;;;;;;;178.17;68.03;;;0.90;96.90;;;;;;4997556;28;20178;-86
2023/12/07 09:10:10;;;;;;;262.53;65.07;;;0.90;96.90;;;;;;4997163;28;20198;-85
2023/12/07 09:12:36;;;;;;;399.50;69.53;;;1.00;96.90;;;;;;4997181;28;20654;-86
2023/12/07 09:15:03;;;;;;;353.87;70.67;;;1.00;96.90;;;;;;4997452;28;20174;-86
2023/12/07 09:17:28;;;;;;;434.20;75.20;;;1.00;96.90;;;;;;4979546;28;20189;-86
2023/12/07 09:19:54;;;;;;;433.97;71.93;;;0.90;96.80;;;;;;4996872;28;20296;-85
2023/12/07 09:22:20;;;;;;;269.20;64.77;;;0.90;96.80;;;;;;4979475;28;20249;-87
2023/12/07 09:24:46;;;;;;;306.50;60.57;;;0.90;96.90;;;;;;4997177;28;20175;-85
2023/12/07 09:27:13;;;;;;;307.57;63.03;;;1.00;96.90;;;;;;4995747;28;20179;-85
2023/12/07 09:29:38;;;;;;;397.47;72.50;;;0.90;96.80;;;;;;4996751;28;20211;-84
2023/12/07 09:32:04;;;;;;;317.63;76.33;;;0.80;96.80;;;;;;4997118;28;20178;-85
2023/12/07 09:34:30;;;;;;;365.77;71.07;;;0.80;96.90;;;;;;4996746;28;20178;-85
2023/12/07 09:37:07;;;;;;;402.97;70.73;;;0.80;96.90;;;;;;4979689;28;20181;-85
2023/12/07 09:39:32;;;;;;;406.00;71.70;;;0.80;96.90;;;;;;4995934;28;20198;-85
2023/12/07 09:41:58;;;;;;;353.43;70.73;;;0.70;96.90;;;;;;4997391;28;20241;-85
2023/12/07 09:44:23;;;;;;;368.70;70.10;;;0.80;96.90;;;;;;4997340;28;20174;-85
2023/12/07 09:46:49;;;;;;;404.60;70.43;;;0.70;96.90;;;;;;4979719;28;20178;-86
2023/12/07 09:49:14;;;;;;;441.10;72.87;;;0.70;96.90;;;;;;4980086;28;20590;-86
2023/12/07 09:51:43;;;;;;;380.33;69.20;;;0.80;96.90;;;;;;4996472;28;20182;-86
2023/12/07 09:54:09;;;;;;;425.07;78.80;;;0.80;96.90;;;;;;4978988;28;20185;-87
2023/12/07 09:56:34;;;;;;;326.57;70.27;;;0.80;96.90;;;;;;4996595;28;20265;-85
2023/12/07 09:59:00;;;;;;;355.87;72.20;;;0.80;97.00;;;;;;4996154;28;20221;-85
2023/12/07 10:01:30;;;;;;;368.17;67.67;;;0.80;97.00;;;;;;4996577;28;20185;-85
2023/12/07 10:04:25;;;;;;;289.87;66.30;;;0.80;96.90;;;;;;4996225;28;20241;-86
2023/12/07 10:06:52;;;;;;;276.33;72.33;;;0.90;97.00;;;;;;4996579;28;20155;-85
2023/12/07 10:09:24;;;;;;;180.13;62.07;;;0.80;97.00;;;;;;4995958;28;20193;-86
2023/12/07 10:11:50;;;;;;;245.60;55.87;;;0.90;97.00;;;;;;4996175;28;20174;-85
2023/12/07 10:14:15;;;;;;;201.87;55.20;;;0.90;97.00;;;;;;4996271;28;20537;-87
2023/12/07 10:16:57;;;;;;;154.93;50.97;;;0.90;97.00;;;;;;4996366;28;20174;-87
2023/12/07 10:19:24;;;;;;;345.07;55.67;;;0.90;97.00;;;;;;4995876;28;20289;-87
2023/12/07 10:21:51;;;;;;;211.50;51.37;;;1.10;97.00;;;;;;4995994;28;20578;-85
2023/12/07 10:24:22;;;;;;;229.97;48.43;;;1.10;97.00;;;;;;4996026;28;20198;-86
2023/12/07 10:26:49;;;;;;;320.87;56.83;;;1.20;97.00;;;;;;4996237;28;20234;-87
2023/12/07 10:29:17;;;;;;;369.63;56.73;;;1.00;97.00;;;;;;4995611;28;20674;-87
2023/12/07 10:31:44;;;;;;;230.20;46.57;;;1.00;97.00;;;;;;4996351;28;20181;-86
2023/12/07 10:34:09;;;;;;;200.97;45.30;;;1.00;97.00;;;;;;4996221;28;20178;-85
2023/12/07 10:36:35;;;;;;;134.63;48.03;;;1.00;97.00;;;;;;4978465;28;20182;-85
2023/12/07 10:39:01;;;;;;;144.63;51.73;;;0.80;97.00;;;;;;4978216;28;20693;-86
2023/12/07 10:41:26;;;;;;;162.97;51.07;;;0.80;96.90;;;;;;4995910;28;20178;-85
2023/12/07 10:44:00;;;;;;;215.60;53.53;;;0.80;97.00;;;;;;4978444;28;20196;-84
2023/12/07 10:46:27;;;;;;;206.03;53.57;;;0.60;96.90;;;;;;4995641;28;20163;-88
2023/12/07 10:48:59;;;;;;;265.10;60.90;;;0.50;96.90;;;;;;4995088;28;20271;-88
2023/12/07 10:51:34;;;;;;;162.33;59.77;;;0.60;97.00;;;;;;4993982;28;20188;-88
2023/12/07 10:54:03;;;;;;;231.93;56.73;;;0.70;97.00;;;;;;4977751;28;20169;-88
2023/12/07 10:56:34;;;;;;;164.13;56.83;;;0.70;97.00;;;;;;4994567;28;20186;-88
2023/12/07 10:59:00;;;;;;;153.67;56.53;;;0.80;97.00;;;;;;4995020;28;20206;-88
2023/12/07 11:01:26;;;;;;;143.83;56.50;;;0.80;97.00;;;;;;4994937;28;20184;-88
2023/12/07 11:03:52;;;;;;;146.60;55.17;;;0.90;97.00;;;;;;4977371;28;20206;-88
2023/12/07 11:06:19;;;;;;;131.80;56.07;;;0.80;97.00;;;;;;4994766;28;20677;-88
2023/12/07 11:08:56;;;;;;;121.57;52.57;;;0.80;97.00;;;;;;4994818;28;20194;-88
2023/12/07 11:11:48;;;;;;;270.53;50.77;;;0.90;97.00;;;;;;4977553;28;20626;-88
2023/12/07 11:14:15;;;;;;;206.80;48.30;;;1.10;97.00;;;;;;4985980;28;20724;-88
2023/12/07 11:16:43;;;;;;;185.60;50.23;;;1.10;97.10;;;;;;4993566;28;20673;-88
2023/12/07 11:19:35;;;;;;;231.23;47.60;;;1.20;97.10;;;;;;4977166;28;20217;-88
2023/12/07 11:22:06;;;;;;;156.27;51.53;;;1.20;97.00;;;;;;4977062;28;20259;-88
2023/12/07 11:24:32;;;;;;;236.93;54.77;;;1.20;97.00;;;;;;4977242;28;20234;-88
2023/12/07 11:26:58;;;;;;;141.70;45.93;;;1.20;97.00;;;;;;4977105;28;20182;-88
2023/12/07 11:29:25;;;;;;;115.87;44.93;;;1.20;97.00;;;;;;4994744;28;20230;-88
2023/12/07 11:31:51;;;;;;;82.53;40.73;;;1.20;97.00;;;;;;4977087;28;20174;-88
2023/12/07 11:34:39;;;;;;;112.23;48.60;;;1.20;97.00;;;;;;4994383;28;20550;-88
2023/12/07 11:37:07;;;;;;;100.43;42.67;;;1.20;97.00;;;;;;4994465;28;20178;-88
2023/12/07 11:39:36;;;;;;;99.23;43.80;;;1.20;97.00;;;;;;4992983;28;20197;-88
2023/12/07 11:42:16;;;;;;;111.90;43.20;;;1.10;97.00;;;;;;4976897;28;20261;-88
2023/12/07 11:44:44;;;;;;;123.40;46.03;;;1.10;96.90;;;;;;4977062;28;20166;-88
2023/12/07 11:47:16;;;;;;;122.47;49.23;;;1.10;96.90;;;;;;4994098;28;20190;-88
2023/12/07 11:49:42;;;;;;;131.10;49.90;;;1.10;96.90;;;;;;4992706;28;20198;-88
2023/12/07 11:52:18;;;;;;;107.83;44.20;;;1.10;96.90;;;;;;4976976;28;20260;-88
2023/12/07 11:54:48;;;;;;;99.80;45.60;;;1.10;96.90;;;;;;4994102;28;20177;-89
2023/12/07 11:57:15;;;;;;;105.23;45.60;;;1.10;96.90;;;;;;4976654;28;20177;-88
2023/12/07 11:59:43;;;;;;;86.33;45.13;;;1.20;96.90;;;;;;4994059;28;20217;-89
2023/12/07 12:02:11;;;;;;;99.03;45.03;;;1.10;96.80;;;;;;4993871;28;20260;-89
2023/12/07 12:04:38;;;;;;;125.97;46.03;;;1.10;96.80;;;;;;4976446;28;20245;-88
2023/12/07 12:07:04;;;;;;;148.40;45.17;;;1.10;96.80;;;;;;4976390;28;20173;-89
2023/12/07 12:09:29;;;;;;;113.77;44.10;;;1.20;96.80;;;;;;4975505;28;20197;-89
2023/12/07 12:12:00;;;;;;;88.77;44.60;;;1.20;96.80;;;;;;4976352;28;20174;-89
2023/12/07 12:14:26;;;;;;;123.37;46.57;;;1.30;96.80;;;;;;4976559;28;20170;-89
2023/12/07 12:16:52;;;;;;;127.30;45.27;;;1.30;96.80;;;;;;4976558;28;20198;-88
2023/12/07 12:19:17;;;;;;;131.00;45.30;;;1.30;96.80;;;;;;4993632;28;20590;-89
2023/12/07 12:21:43;;;;;;;88.87;46.60;;;1.30;96.80;;;;;;4976499;28;20654;-89
2023/12/07 12:24:10;;;;;;;89.40;47.73;;;1.30;96.70;;;;;;4994099;28;20200;-89
2023/12/07 12:26:38;;;;;;;92.53;51.30;;;1.20;96.70;;;;;;4976359;28;20193;-88
2023/12/07 12:29:05;;;;;;;86.30;48.93;;;1.20;96.70;;;;;;4976293;28;20579;-89
2023/12/07 12:31:32;;;;;;;83.73;50.83;;;1.30;96.70;;;;;;4993702;28;20580;-89
2023/12/07 12:33:57;;;;;;;82.77;49.53;;;1.30;96.70;;;;;;4976519;28;20182;-89
2023/12/07 12:36:26;;;;;;;81.30;51.70;;;1.30;96.70;;;;;;4976587;28;20190;-89
2023/12/07 12:38:53;;;;;;;86.17;49.70;;;1.30;96.70;;;;;;4976711;28;20232;-89
2023/12/07 12:41:22;;;;;;;77.47;46.57;;;1.50;96.70;;;;;;4992705;28;20265;-89
2023/12/07 12:43:49;;;;;;;78.77;45.57;;;1.50;96.70;;;;;;4993428;28;20202;-89
2023/12/07 12:46:15;;;;;;;82.97;47.50;;;1.50;96.70;;;;;;4976083;28;20178;-89
2023/12/07 12:49:00;;;;;;;81.83;53.33;;;1.40;96.60;;;;;;4976576;28;20194;-89
2023/12/07 12:51:28;;;;;;;87.37;49.23;;;1.50;96.70;;;;;;4993833;28;20573;-89
2023/12/07 12:53:55;;;;;;;85.63;44.73;;;1.50;96.60;;;;;;4976087;28;20182;-89
2023/12/07 12:56:21;;;;;;;78.27;45.40;;;1.50;96.60;;;;;;4976050;28;20233;-89
2023/12/07 12:58:51;;;;;;;80.03;48.50;;;1.50;96.50;;;;;;4993367;28;20523;-89
2023/12/07 13:01:18;;;;;;;74.80;46.73;;;1.40;96.50;;;;;;4975774;28;20193;-89
2023/12/07 13:03:45;;;;;;;78.43;49.90;;;1.30;96.50;;;;;;4975922;28;20258;-89
2023/12/07 13:06:12;;;;;;;72.93;45.03;;;1.30;96.50;;;;;;4975960;28;20638;-89
2023/12/07 13:08:37;;;;;;;73.50;44.87;;;1.40;96.50;;;;;;4975721;28;20198;-89
2023/12/07 13:11:03;;;;;;;65.47;42.03;;;1.40;96.50;;;;;;4992085;28;20310;-89
2023/12/07 13:13:29;;;;;;;64.17;41.90;;;1.40;96.40;;;;;;4975931;28;20190;-89
2023/12/07 13:15:55;;;;;;;67.17;43.07;;;1.40;96.50;;;;;;4993149;28;20171;-89
2023/12/07 13:18:20;;;;;;;66.33;42.30;;;1.40;96.40;;;;;;4975680;28;20225;-89
2023/12/07 13:20:46;;;;;;;66.33;42.30;;;1.40;96.40;;;;;;4995620;28;20177;-89
2023/12/07 13:23:11;;;;;;;61.43;41.60;;;1.40;96.40;;;;;;4979424;28;20682;-89
2023/12/07 13:25:37;;;;;;;67.60;44.77;;;1.30;96.40;;;;;;4979282;28;20299;-89
2023/12/07 13:28:02;;;;;;;68.23;43.17;;;1.50;96.40;;;;;;4996723;28;20197;-89
2023/12/07 13:30:29;;;;;;;70.13;46.93;;;1.60;96.40;;;;;;4996566;28;20704;-89
2023/12/07 13:32:55;;;;;;;67.40;48.73;;;1.60;96.40;;;;;;4979263;28;20178;-89
2023/12/07 13:35:20;;;;;;;62.70;44.27;;;1.60;96.40;;;;;;4979441;28;20183;-89
2023/12/07 13:37:47;;;;;;;69.20;46.27;;;1.50;96.40;;;;;;4996491;28;20257;-90
2023/12/07 13:40:15;;;;;;;67.73;46.70;;;1.60;96.40;;;;;;4996569;28;20503;-89
2023/12/07 13:42:40;;;;;;;67.47;48.23;;;1.60;96.40;;;;;;4996617;28;20614;-89
2023/12/07 13:45:08;;;;;;;63.20;45.10;;;1.60;96.30;;;;;;4996389;28;20171;-90
2023/12/07 13:47:36;;;;;;;67.50;48.27;;;1.50;96.30;;;;;;4996649;28;20174;-89
2023/12/07 13:50:03;;;;;;;66.17;47.97;;;1.50;96.30;;;;;;4978686;28;20193;-90
2023/12/07 13:52:29;;;;;;;64.33;46.73;;;1.60;96.30;;;;;;4996554;28;20185;-89
2023/12/07 13:54:56;;;;;;;70.30;48.53;;;1.60;96.20;;;;;;4978936;28;20646;-89
2023/12/07 13:57:26;;;;;;;66.73;48.17;;;1.60;96.20;;;;;;4978718;28;20202;-89
2023/12/07 13:59:52;;;;;;;68.63;45.77;;;1.60;96.20;;;;;;4978751;28;20202;-90
2023/12/07 14:02:18;;;;;;;70.80;49.23;;;1.50;96.10;;;;;;4978601;28;20713;-89
2023/12/07 14:04:44;;;;;;;72.73;46.77;;;1.60;96.20;;;;;;4997071;28;20186;-89
2023/12/07 14:07:14;;;;;;;74.17;45.03;;;1.60;96.20;;;;;;4998012;28;20642;-89
2023/12/07 14:09:42;;;;;;;68.00;46.93;;;1.60;96.10;;;;;;4997240;28;20225;-88
2023/12/07 14:12:08;;;;;;;67.13;47.47;;;1.80;96.20;;;;;;4979318;28;20185;-88
2023/12/07 14:14:34;;;;;;;70.07;48.53;;;1.80;96.10;;;;;;4996833;28;20177;-88
2023/12/07 14:17:00;;;;;;;63.23;42.40;;;1.80;96.10;;;;;;4979042;28;20266;-89
2023/12/07 14:19:25;;;;;;;59.27;40.57;;;1.90;96.10;;;;;;4978978;28;20705;-88
2023/12/07 14:21:51;;;;;;;70.03;49.43;;;2.00;96.10;;;;;;4996627;28;20266;-89
2023/12/07 14:24:17;;;;;;;64.23;47.30;;;2.10;96.10;;;;;;4978900;28;20198;-89
2023/12/07 14:26:43;;;;;;;65.63;48.80;;;2.00;96.00;;;;;;4979471;28;20258;-89
2023/12/07 14:29:14;;;;;;;61.27;43.70;;;2.10;96.00;;;;;;4978775;28;20236;-90
2023/12/07 14:31:40;;;;;;;58.80;41.80;;;2.20;95.90;;;;;;4995819;28;20153;-89
2023/12/07 14:34:06;;;;;;;64.77;44.90;;;2.10;95.80;;;;;;4978903;28;20673;-89
2023/12/07 14:36:31;;;;;;;69.83;44.93;;;2.10;95.80;;;;;;4996134;28;20169;-89
2023/12/07 14:38:57;;;;;;;62.90;42.37;;;2.10;95.70;;;;;;4978533;28;20289;-89
2023/12/07 14:41:23;;;;;;;64.33;43.43;;;2.10;95.60;;;;;;4978683;28;20178;-89
2023/12/07 14:43:48;;;;;;;69.67;42.23;;;2.10;95.50;;;;;;4996881;28;20216;-89
2023/12/07 14:46:14;;;;;;;67.10;41.67;;;2.30;95.50;;;;;;4979619;28;20182;-88
2023/12/07 14:48:40;;;;;;;58.27;41.93;;;2.40;95.60;;;;;;4979474;28;20243;-88
2023/12/07 14:51:06;;;;;;;61.87;49.23;;;2.50;95.40;;;;;;4996869;28;20651;-89
2023/12/07 14:53:33;;;;;;;71.03;47.60;;;2.40;95.20;;;;;;4996290;28;20179;-89
2023/12/07 14:55:59;;;;;;;62.80;49.27;;;2.30;95.00;;;;;;4998457;28;20264;-88
2023/12/07 14:58:25;;;;;;;66.90;49.33;;;2.20;94.90;;;;;;4979516;28;20198;-88
2023/12/07 15:00:50;;;;;;;60.53;44.93;;;2.20;94.90;;;;;;4998422;28;20576;-88
2023/12/07 15:03:17;;;;;;;61.70;44.97;;;2.40;94.90;;;;;;4979513;28;20204;-89
2023/12/07 15:05:44;;;;;;;64.33;45.23;;;2.40;94.90;;;;;;4979552;28;20704;-88
2023/12/07 15:08:10;;;;;;;60.43;46.93;;;2.40;94.70;;;;;;4979384;28;20702;-89
2023/12/07 15:10:37;;;;;;;57.17;45.70;;;2.30;94.60;;;;;;4997478;28;20603;-91
2023/12/07 15:13:03;;;;;;;58.63;46.77;;;2.30;94.50;;;;;;4981027;28;20174;-89
2023/12/07 15:15:28;;;;;;;61.30;46.27;;;2.30;94.40;;;;;;4982194;28;20187;-89
2023/12/07 15:17:54;;;;;;;59.77;45.70;;;2.30;94.30;;;;;;4982266;28;20644;-88
2023/12/07 15:20:19;;;;;;;58.33;46.50;;;2.30;94.30;;;;;;4981477;28;20221;-88
2023/12/07 15:22:46;;;;;;;59.53;46.37;;;2.20;94.10;;;;;;4999000;28;20273;-88
2023/12/07 15:25:11;;;;;;;57.27;41.47;;;2.20;94.10;;;;;;4998189;28;20177;-88
2023/12/07 15:27:37;;;;;;;61.27;41.83;;;2.30;94.10;;;;;;4997029;28;20188;-88
2023/12/07 15:30:06;;;;;;;57.73;42.63;;;2.30;94.10;;;;;;4978546;28;20290;-88
2023/12/07 15:32:32;;;;;;;60.23;48.40;;;2.30;94.00;;;;;;4994993;28;20176;-90
2023/12/07 15:34:57;;;;;;;62.20;47.80;;;2.30;94.10;;;;;;4995380;28;20551;-89
2023/12/07 15:37:24;;;;;;;61.40;43.67;;;2.30;94.00;;;;;;4978111;28;20185;-88
2023/12/07 15:39:51;;;;;;;60.63;44.53;;;2.40;94.10;;;;;;4996886;28;20295;-88
2023/12/07 15:42:16;;;;;;;60.20;44.50;;;2.30;93.90;;;;;;4978914;28;20215;-89
2023/12/07 15:44:42;;;;;;;66.53;47.70;;;2.30;94.00;;;;;;4978308;28;20211;-88